createdAt,value
2024-02-16T00:00:14.620Z,4.80
2024-02-16T00:02:45.570Z,4.80
2024-02-16T00:05:13.783Z,4.70
2024-02-16T00:07:41.504Z,4.80
2024-02-16T00:10:10.392Z,5.00
2024-02-16T00:12:38.055Z,5.10
2024-02-16T00:15:05.789Z,5.30
2024-02-16T00:17:34.668Z,5.10
2024-02-16T00:20:02.429Z,4.90
2024-02-16T00:22:29.991Z,4.60
2024-02-16T00:24:57.297Z,4.30
2024-02-16T00:27:24.675Z,4.30
2024-02-16T00:29:51.997Z,4.60
2024-02-16T00:32:19.340Z,4.60
2024-02-16T00:34:46.827Z,4.50
2024-02-16T00:37:14.045Z,4.40
2024-02-16T00:39:43.960Z,4.60
2024-02-16T00:42:12.361Z,4.70
2024-02-16T00:44:40.273Z,4.80
2024-02-16T00:47:07.902Z,4.40
2024-02-16T00:49:35.553Z,4.30
2024-02-16T00:52:03.678Z,4.30
2024-02-16T00:54:31.100Z,4.20
2024-02-16T00:57:03.959Z,4.30
2024-02-16T00:59:31.740Z,4.40
2024-02-16T01:01:59.273Z,4.20
2024-02-16T01:04:26.695Z,4.10
2024-02-16T01:06:54.114Z,4.30
2024-02-16T01:09:21.489Z,4.50
2024-02-16T01:11:48.848Z,4.70
2024-02-16T01:14:16.668Z,4.70
2024-02-16T01:16:44.216Z,4.70
2024-02-16T01:21:58.921Z,4.60
2024-02-16T01:24:26.488Z,4.50
2024-02-16T01:26:53.866Z,4.30
2024-02-16T01:29:21.184Z,4.40
2024-02-16T01:31:48.428Z,4.40
2024-02-16T01:34:16.252Z,4.40
2024-02-16T01:36:43.586Z,4.60
2024-02-16T01:39:10.973Z,4.60
2024-02-16T01:41:41.152Z,4.40
2024-02-16T01:44:09.117Z,4.60
2024-02-16T01:46:37.012Z,4.70
2024-02-16T01:49:05.269Z,4.30
2024-02-16T01:51:33.513Z,4.50
2024-02-16T01:54:02.315Z,4.50
2024-02-16T01:57:07.188Z,4.10
2024-02-16T01:59:34.802Z,4.30
2024-02-16T02:02:02.068Z,4.50
2024-02-16T02:04:29.687Z,4.50
2024-02-16T02:06:57.249Z,4.60
2024-02-16T02:09:24.682Z,4.50
2024-02-16T02:11:53.333Z,4.30
2024-02-16T02:14:24.028Z,4.30
2024-02-16T02:16:58.555Z,4.40
2024-02-16T02:19:26.788Z,4.30
2024-02-16T02:21:54.064Z,4.30
2024-02-16T02:24:22.192Z,4.20
2024-02-16T02:26:49.557Z,4.20
2024-02-16T02:29:16.884Z,4.20
2024-02-16T02:31:44.307Z,4.20
2024-02-16T02:34:12.045Z,4.30
2024-02-16T02:36:39.449Z,4.20
2024-02-16T02:39:07.372Z,4.30
2024-02-16T02:41:34.714Z,4.30
2024-02-16T02:44:02.012Z,4.30
2024-02-16T02:46:29.298Z,4.30
2024-02-16T02:48:56.768Z,4.20
2024-02-16T02:51:25.150Z,4.30
2024-02-16T02:56:19.742Z,4.10
2024-02-16T02:58:47.002Z,4.30
2024-02-16T03:01:15.265Z,4.20
2024-02-16T03:03:44.281Z,4.00
2024-02-16T03:06:11.938Z,3.70
2024-02-16T03:08:39.310Z,3.40
2024-02-16T03:11:06.926Z,3.00
2024-02-16T03:13:34.508Z,3.10
2024-02-16T03:16:01.767Z,3.30
2024-02-16T03:18:38.420Z,3.20
2024-02-16T03:21:06.096Z,3.40
2024-02-16T03:23:33.409Z,3.40
2024-02-16T03:26:00.666Z,3.30
2024-02-16T03:28:27.860Z,3.40
2024-02-16T03:30:55.186Z,3.20
2024-02-16T03:33:22.843Z,3.20
2024-02-16T03:35:50.285Z,3.10
2024-02-16T03:38:17.611Z,3.00
2024-02-16T03:40:44.850Z,3.00
2024-02-16T03:43:13.196Z,3.10
2024-02-16T03:45:40.486Z,3.20
2024-02-16T03:50:52.839Z,3.20
2024-02-16T03:53:20.116Z,3.00
2024-02-16T03:55:47.366Z,3.10
2024-02-16T03:58:14.689Z,2.90
2024-02-16T04:00:42.045Z,3.10
2024-02-16T04:03:10.629Z,2.80
2024-02-16T04:05:40.270Z,2.80
2024-02-16T04:08:07.783Z,2.90
2024-02-16T04:10:35.554Z,3.00
2024-02-16T04:13:03.772Z,3.00
2024-02-16T04:15:31.371Z,2.90
2024-02-16T04:17:58.735Z,2.90
2024-02-16T04:20:26.120Z,2.90
2024-02-16T04:22:53.397Z,3.00
2024-02-16T04:25:20.958Z,3.00
2024-02-16T04:27:48.285Z,2.80
2024-02-16T04:30:15.589Z,2.80
2024-02-16T04:32:42.844Z,2.80
2024-02-16T04:35:13.429Z,2.80
2024-02-16T04:37:40.876Z,2.90
2024-02-16T04:40:09.359Z,3.00
2024-02-16T04:42:36.568Z,3.00
2024-02-16T04:45:06.619Z,3.10
2024-02-16T04:47:34.294Z,3.10
2024-02-16T04:50:01.754Z,3.10
2024-02-16T04:52:30.975Z,3.20
2024-02-16T04:54:58.854Z,3.30
2024-02-16T04:57:26.162Z,3.30
2024-02-16T04:59:53.532Z,3.40
2024-02-16T05:02:20.790Z,3.30
2024-02-16T05:04:48.075Z,3.20
2024-02-16T05:07:16.946Z,3.10
2024-02-16T05:09:44.501Z,3.20
2024-02-16T05:12:13.038Z,3.20
2024-02-16T05:14:41.655Z,3.00
2024-02-16T05:17:08.889Z,3.00
2024-02-16T05:19:36.880Z,3.40
2024-02-16T05:22:04.895Z,3.30
2024-02-16T05:27:16.691Z,3.10
2024-02-16T05:29:45.517Z,3.10
2024-02-16T05:32:14.106Z,3.20
2024-02-16T05:34:41.560Z,3.20
2024-02-16T05:37:09.729Z,3.10
2024-02-16T05:39:54.875Z,3.20
2024-02-16T05:42:25.136Z,3.20
2024-02-16T05:44:52.651Z,3.40
2024-02-16T05:47:21.021Z,3.50
2024-02-16T05:49:48.575Z,3.40
2024-02-16T05:52:19.345Z,3.50
2024-02-16T05:54:48.118Z,3.50
2024-02-16T05:57:15.843Z,3.60
2024-02-16T05:59:43.396Z,3.70
2024-02-16T06:02:12.264Z,3.50
2024-02-16T06:04:41.117Z,3.40
2024-02-16T06:07:09.428Z,3.10
2024-02-16T06:09:38.730Z,3.00
2024-02-16T06:12:08.652Z,3.40
2024-02-16T06:14:37.809Z,3.50
2024-02-16T06:17:05.243Z,3.50
2024-02-16T06:19:32.706Z,3.40
2024-02-16T06:22:00.312Z,3.50
2024-02-16T06:24:27.688Z,3.50
2024-02-16T06:29:41.537Z,3.80
2024-02-16T06:32:08.897Z,3.80
2024-02-16T06:34:37.241Z,3.70
2024-02-16T06:37:04.875Z,3.60
2024-02-16T06:39:32.603Z,3.60
2024-02-16T06:42:00.724Z,3.70
2024-02-16T06:44:27.989Z,3.90
2024-02-16T06:46:55.413Z,3.80
2024-02-16T06:49:22.619Z,3.50
2024-02-16T06:51:50.021Z,3.90
2024-02-16T06:54:17.278Z,4.60
2024-02-16T06:56:45.382Z,4.50
2024-02-16T06:59:12.842Z,4.30
2024-02-16T07:01:40.162Z,4.20
2024-02-16T07:04:07.433Z,4.20
2024-02-16T07:06:34.814Z,4.20
2024-02-16T07:09:02.260Z,4.50
2024-02-16T07:11:29.924Z,4.70
2024-02-16T07:13:57.180Z,4.70
2024-02-16T07:16:24.377Z,4.70
2024-02-16T07:18:52.044Z,4.90
2024-02-16T07:21:21.985Z,4.90
2024-02-16T07:23:49.523Z,4.90
2024-02-16T07:26:18.307Z,5.00
2024-02-16T07:28:46.027Z,5.10
2024-02-16T07:31:15.552Z,5.30
2024-02-16T07:33:43.754Z,5.10
2024-02-16T07:36:11.217Z,5.10
2024-02-16T07:38:38.477Z,4.90
2024-02-16T07:41:09.486Z,5.20
2024-02-16T07:43:37.002Z,5.50
2024-02-16T07:46:05.057Z,5.60
2024-02-16T07:48:32.674Z,5.50
2024-02-16T07:51:04.028Z,5.60
2024-02-16T07:53:32.820Z,5.40
2024-02-16T07:56:00.207Z,5.70
2024-02-16T07:58:27.476Z,5.70
2024-02-16T08:00:56.741Z,6.00
2024-02-16T08:03:42.943Z,5.90
2024-02-16T08:06:10.597Z,6.10
2024-02-16T08:08:37.980Z,6.30
2024-02-16T08:11:05.504Z,6.40
2024-02-16T08:13:33.152Z,6.50
2024-02-16T08:16:00.498Z,6.60
2024-02-16T08:18:27.912Z,6.90
2024-02-16T08:20:55.498Z,7.20
2024-02-16T08:23:22.712Z,7.20
2024-02-16T08:25:50.032Z,7.50
2024-02-16T08:28:17.299Z,7.30
2024-02-16T08:30:45.714Z,7.60
2024-02-16T08:33:16.105Z,7.90
2024-02-16T08:35:43.964Z,7.90
2024-02-16T08:38:12.271Z,8.10
2024-02-16T08:40:40.636Z,7.80
2024-02-16T08:43:08.620Z,8.00
2024-02-16T08:45:36.399Z,8.20
2024-02-16T08:48:05.660Z,8.40
2024-02-16T08:50:33.127Z,8.70
2024-02-16T08:53:00.363Z,9.00
2024-02-16T08:55:31.224Z,9.20
2024-02-16T08:57:59.123Z,9.40
2024-02-16T09:00:28.255Z,9.30
2024-02-16T09:02:56.382Z,9.50
2024-02-16T09:05:25.867Z,9.60
2024-02-16T09:07:56.468Z,9.70
2024-02-16T09:10:24.484Z,9.70
2024-02-16T09:12:53.210Z,9.80
2024-02-16T09:15:20.461Z,9.80
2024-02-16T09:17:47.713Z,9.80
2024-02-16T09:20:15.358Z,9.90
2024-02-16T09:22:47.122Z,10.10
2024-02-16T09:25:15.635Z,10.40
2024-02-16T09:27:48.279Z,10.50
2024-02-16T09:30:15.828Z,10.40
2024-02-16T09:32:43.562Z,10.50
2024-02-16T09:35:11.258Z,10.80
2024-02-16T09:37:40.592Z,11.10
2024-02-16T09:40:09.630Z,11.20
2024-02-16T09:45:25.856Z,10.20
2024-02-16T09:53:27.752Z,11.40
2024-02-16T09:55:55.577Z,11.70
2024-02-16T09:58:22.980Z,12.10
2024-02-16T10:00:54.684Z,12.30
2024-02-16T10:03:28.984Z,12.40
2024-02-16T10:06:13.090Z,12.20
2024-02-16T10:08:53.446Z,12.00
2024-02-16T10:14:07.144Z,11.90
2024-02-16T10:16:34.642Z,12.00
2024-02-16T10:19:09.557Z,12.40
2024-02-16T10:21:37.068Z,12.80
2024-02-16T10:24:09.738Z,13.00
2024-02-16T10:26:40.765Z,13.30
2024-02-16T10:29:11.089Z,13.30
2024-02-16T10:31:39.136Z,13.30
2024-02-16T10:34:08.623Z,13.00
2024-02-16T10:36:37.667Z,13.10
2024-02-16T10:39:07.230Z,14.00
2024-02-16T10:41:35.888Z,14.70
2024-02-16T10:44:05.464Z,14.30
2024-02-16T10:46:33.592Z,14.40
2024-02-16T10:51:49.362Z,14.80
2024-02-16T10:54:20.752Z,15.50
2024-02-16T10:56:49.120Z,15.70
2024-02-16T10:59:18.236Z,15.60
2024-02-16T11:01:46.527Z,15.80
2024-02-16T11:07:11.678Z,15.90
2024-02-16T11:09:41.542Z,15.50
2024-02-16T11:12:09.861Z,17.80
2024-02-16T11:14:42.880Z,22.90
2024-02-16T11:17:21.260Z,24.70
2024-02-16T11:22:39.829Z,27.10
2024-02-16T11:25:08.883Z,27.60
2024-02-16T11:27:36.549Z,28.20
2024-02-16T11:30:06.433Z,28.30
2024-02-16T11:32:35.995Z,25.70
2024-02-16T11:35:10.407Z,20.70
2024-02-16T11:37:38.123Z,18.60
2024-02-16T11:40:09.460Z,17.70
2024-02-16T11:42:36.821Z,17.30
2024-02-16T11:45:04.639Z,17.30
2024-02-16T11:47:32.097Z,17.10
2024-02-16T11:50:04.251Z,17.40
2024-02-16T11:52:51.969Z,17.30
2024-02-16T11:55:19.223Z,17.50
2024-02-16T11:57:49.618Z,17.40
2024-02-16T12:00:17.192Z,17.40
2024-02-16T12:02:44.677Z,17.60
2024-02-16T12:08:01.273Z,18.10
2024-02-16T12:10:30.356Z,17.80
2024-02-16T12:13:00.442Z,18.30
2024-02-16T12:15:30.071Z,18.60
2024-02-16T12:18:04.704Z,18.40
2024-02-16T12:20:32.914Z,18.20
2024-02-16T12:23:00.771Z,18.10
2024-02-16T12:25:28.036Z,18.40
2024-02-16T12:27:55.372Z,18.10
2024-02-16T12:30:22.617Z,18.90
2024-02-16T12:32:49.928Z,22.90
2024-02-16T12:40:53.049Z,30.60
2024-02-16T12:43:21.403Z,30.20
2024-02-16T12:45:48.933Z,29.90
2024-02-16T12:48:16.983Z,30.30
2024-02-16T12:50:44.329Z,30.50
2024-02-16T12:53:11.821Z,30.70
2024-02-16T12:55:39.195Z,30.50
2024-02-16T12:58:06.608Z,31.00
2024-02-16T13:00:33.971Z,31.70
2024-02-16T13:03:01.482Z,32.00
2024-02-16T13:05:29.057Z,30.70
2024-02-16T13:07:56.571Z,31.20
2024-02-16T13:10:23.974Z,31.10
2024-02-16T13:12:51.234Z,31.10
2024-02-16T13:15:27.088Z,30.10
2024-02-16T13:17:56.891Z,30.40
2024-02-16T13:20:24.583Z,31.00
2024-02-16T13:22:51.908Z,31.50
2024-02-16T13:25:21.555Z,32.30
2024-02-16T13:27:48.925Z,32.10
2024-02-16T13:30:16.391Z,31.60
2024-02-16T13:35:30.148Z,31.80
2024-02-16T13:37:57.346Z,29.90
2024-02-16T13:40:24.946Z,29.70
2024-02-16T13:42:52.282Z,29.70
2024-02-16T13:45:19.652Z,29.80
2024-02-16T13:47:47.134Z,30.20
2024-02-16T13:50:14.731Z,31.00
2024-02-16T13:52:42.204Z,31.80
2024-02-16T13:55:09.662Z,32.00
2024-02-16T13:57:37.298Z,31.60
2024-02-16T14:00:05.013Z,31.70
2024-02-16T14:02:32.377Z,30.80
2024-02-16T14:05:02.745Z,31.00
2024-02-16T14:07:34.022Z,30.80
2024-02-16T14:10:03.065Z,30.50
2024-02-16T14:15:17.236Z,30.50
2024-02-16T14:17:44.766Z,30.50
2024-02-16T14:20:12.867Z,30.20
2024-02-16T14:22:40.298Z,30.20
2024-02-16T14:25:07.769Z,29.80
2024-02-16T14:27:35.095Z,29.50
2024-02-16T14:30:03.432Z,29.80
2024-02-16T14:32:30.750Z,30.70
2024-02-16T14:34:58.159Z,31.40
2024-02-16T14:37:25.732Z,30.60
2024-02-16T14:39:58.001Z,30.20
2024-02-16T14:42:25.820Z,29.80
2024-02-16T14:44:55.094Z,30.30
2024-02-16T14:47:23.607Z,30.10
2024-02-16T14:49:50.971Z,29.50
2024-02-16T14:52:18.316Z,29.00
2024-02-16T14:54:45.632Z,27.70
2024-02-16T14:57:13.061Z,27.90
2024-02-16T14:59:40.383Z,27.90
2024-02-16T15:02:08.462Z,28.10
2024-02-16T15:04:35.830Z,28.00
2024-02-16T15:07:03.091Z,28.00
2024-02-16T15:09:30.610Z,27.20
2024-02-16T15:11:58.300Z,27.30
2024-02-16T15:14:25.660Z,26.60
2024-02-16T15:16:55.113Z,26.10
2024-02-16T15:19:22.406Z,25.80
2024-02-16T15:21:50.034Z,24.70
2024-02-16T15:24:17.378Z,23.30
2024-02-16T15:26:46.021Z,21.80
2024-02-16T15:29:13.306Z,19.80
2024-02-16T15:31:40.579Z,18.20
2024-02-16T15:34:08.112Z,17.20
2024-02-16T15:36:35.887Z,17.00
2024-02-16T15:39:03.264Z,16.60
2024-02-16T15:41:30.874Z,16.30
2024-02-16T15:43:58.234Z,16.10
2024-02-16T15:46:25.541Z,15.90
2024-02-16T15:48:53.223Z,15.80
2024-02-16T15:54:05.769Z,15.40
2024-02-16T15:56:33.076Z,15.30
2024-02-16T15:59:03.117Z,15.10
2024-02-16T16:01:31.877Z,14.90
2024-02-16T16:03:59.530Z,14.70
2024-02-16T16:06:27.386Z,14.60
2024-02-16T16:11:48.085Z,14.20
2024-02-16T16:17:00.419Z,13.90
2024-02-16T16:19:28.711Z,13.80
2024-02-16T16:21:57.387Z,13.70
2024-02-16T16:24:24.698Z,13.60
2024-02-16T16:26:53.934Z,13.40
2024-02-16T16:29:21.316Z,13.40
2024-02-16T16:31:48.644Z,13.50
2024-02-16T16:34:16.027Z,13.30
2024-02-16T16:36:43.456Z,13.10
2024-02-16T16:39:10.891Z,13.20
2024-02-16T16:41:39.392Z,13.20
2024-02-16T16:44:06.574Z,13.20
2024-02-16T16:46:34.005Z,13.20
2024-02-16T16:49:01.308Z,13.10
2024-02-16T16:51:28.583Z,13.00
2024-02-16T16:53:55.942Z,12.70
2024-02-16T16:56:25.986Z,12.80
2024-02-16T16:58:53.283Z,12.90
2024-02-16T17:01:21.178Z,13.00
2024-02-16T17:03:51.663Z,12.90
2024-02-16T17:06:24.723Z,12.80
2024-02-16T17:08:53.036Z,12.50
2024-02-16T17:11:24.265Z,12.40
2024-02-16T17:13:51.752Z,12.30
2024-02-16T17:16:19.043Z,12.10
2024-02-16T17:18:46.361Z,12.20
2024-02-16T17:23:58.702Z,12.50
2024-02-16T17:26:26.011Z,12.50
2024-02-16T17:28:53.317Z,12.40
2024-02-16T17:31:20.740Z,12.40
2024-02-16T17:33:48.288Z,12.10
2024-02-16T17:36:15.759Z,12.00
2024-02-16T17:41:33.224Z,11.30
2024-02-16T17:44:05.004Z,10.90
2024-02-16T17:46:32.277Z,10.90
2024-02-16T17:48:59.700Z,10.80
2024-02-16T17:51:29.336Z,10.70
2024-02-16T17:53:56.736Z,10.90
2024-02-16T17:56:24.258Z,11.00
2024-02-16T17:58:51.546Z,11.00
2024-02-16T18:01:19.395Z,10.80
2024-02-16T18:03:47.585Z,10.60
2024-02-16T18:06:15.113Z,10.50
2024-02-16T18:08:42.440Z,10.30
2024-02-16T18:11:11.980Z,10.30
2024-02-16T18:13:39.438Z,10.30
2024-02-16T18:16:07.090Z,10.50
2024-02-16T18:18:35.214Z,10.50
2024-02-16T18:21:02.824Z,10.60
2024-02-16T18:23:31.577Z,10.60
2024-02-16T18:25:59.543Z,10.20
2024-02-16T18:31:12.158Z,9.90
2024-02-16T18:33:39.668Z,10.00
2024-02-16T18:36:08.422Z,10.10
2024-02-16T18:38:37.255Z,10.20
2024-02-16T18:41:04.639Z,10.20
2024-02-16T18:43:31.909Z,10.30
2024-02-16T18:45:59.939Z,10.30
2024-02-16T18:48:28.025Z,10.30
2024-02-16T18:50:55.437Z,10.30
2024-02-16T18:56:07.640Z,9.60
2024-02-16T18:58:53.824Z,9.30
2024-02-16T19:01:22.474Z,9.40
2024-02-16T19:03:50.187Z,9.40
2024-02-16T19:06:18.245Z,9.40
2024-02-16T19:08:45.516Z,9.30
2024-02-16T19:11:12.813Z,8.80
2024-02-16T19:13:40.137Z,8.60
2024-02-16T19:16:07.930Z,8.40
2024-02-16T19:18:37.615Z,8.40
2024-02-16T19:21:08.425Z,8.30
2024-02-16T19:23:36.004Z,8.50
2024-02-16T19:26:03.252Z,8.40
2024-02-16T19:28:30.503Z,8.30
2024-02-16T19:31:00.583Z,8.20
2024-02-16T19:33:28.212Z,8.30
2024-02-16T19:35:56.086Z,8.30
2024-02-16T19:38:23.456Z,8.20
2024-02-16T19:40:50.737Z,8.10
2024-02-16T19:43:20.386Z,8.30
2024-02-16T19:45:47.709Z,8.40
2024-02-16T19:48:15.058Z,8.60
2024-02-16T19:50:42.581Z,8.80
2024-02-16T19:58:39.784Z,8.90
2024-02-16T20:01:07.219Z,8.80
2024-02-16T20:03:35.524Z,8.70
2024-02-16T20:06:05.582Z,8.50
2024-02-16T20:08:35.258Z,8.70
2024-02-16T20:11:02.653Z,8.50
2024-02-16T20:13:32.584Z,8.60
2024-02-16T20:16:00.044Z,8.30
2024-02-16T20:18:30.420Z,8.30
2024-02-16T20:23:47.577Z,8.20
2024-02-16T20:26:22.217Z,8.20
2024-02-16T20:28:49.543Z,8.00
2024-02-16T20:31:16.808Z,8.10
2024-02-16T20:36:28.928Z,8.30
2024-02-16T20:38:59.057Z,8.40
2024-02-16T20:41:26.472Z,8.40
2024-02-16T20:43:53.851Z,8.50
2024-02-16T20:46:21.752Z,8.50
2024-02-16T20:48:49.082Z,8.50
2024-02-16T20:51:16.629Z,8.40
2024-02-16T20:53:44.450Z,8.40
2024-02-16T20:56:12.091Z,8.20
2024-02-16T20:58:39.389Z,8.20
2024-02-16T21:01:06.857Z,8.10
2024-02-16T21:03:34.392Z,8.10
2024-02-16T21:06:02.884Z,8.00
2024-02-16T21:08:32.660Z,8.00
2024-02-16T21:10:59.960Z,8.10
2024-02-16T21:13:27.278Z,8.20
2024-02-16T21:15:55.185Z,8.00
2024-02-16T21:18:22.568Z,8.00
2024-02-16T21:20:49.978Z,7.80
2024-02-16T21:23:17.245Z,7.50
2024-02-16T21:25:44.462Z,7.70
2024-02-16T21:28:12.962Z,7.80
2024-02-16T21:30:42.089Z,7.80
2024-02-16T21:33:09.613Z,7.70
2024-02-16T21:38:22.566Z,7.40
2024-02-16T21:40:50.184Z,7.30
2024-02-16T21:43:17.426Z,7.10
2024-02-16T21:45:45.463Z,7.00
2024-02-16T21:48:20.051Z,7.00
2024-02-16T21:50:53.249Z,6.90
2024-02-16T21:53:20.657Z,6.90
2024-02-16T21:55:47.995Z,6.90
2024-02-16T21:58:15.305Z,7.00
2024-02-16T22:00:42.699Z,7.10
2024-02-16T22:03:10.165Z,7.20
2024-02-16T22:05:37.594Z,7.20
2024-02-16T22:08:05.191Z,7.10
2024-02-16T22:10:38.181Z,7.00
2024-02-16T22:13:05.694Z,6.90
2024-02-16T22:15:33.616Z,6.90
2024-02-16T22:18:01.033Z,7.00
2024-02-16T22:20:29.142Z,7.00
2024-02-16T22:22:56.444Z,7.00
2024-02-16T22:25:23.749Z,6.90
2024-02-16T22:27:50.981Z,6.90
2024-02-16T22:30:18.406Z,6.90
2024-02-16T22:32:45.911Z,6.90
2024-02-16T22:35:13.171Z,6.80
2024-02-16T22:37:40.361Z,7.00
2024-02-16T22:40:08.384Z,7.00
2024-02-16T22:42:35.761Z,7.10
2024-02-16T22:45:03.221Z,7.20
2024-02-16T22:47:30.636Z,6.80
2024-02-16T22:49:58.001Z,6.30
2024-02-16T22:52:25.326Z,6.20
2024-02-16T22:54:53.139Z,6.00
2024-02-16T22:57:23.379Z,6.00
2024-02-16T22:59:50.663Z,5.90
2024-02-16T23:05:02.244Z,5.70
2024-02-16T23:07:29.601Z,5.90
2024-02-16T23:09:57.040Z,5.80
2024-02-16T23:12:25.334Z,5.80
2024-02-16T23:14:58.706Z,5.80
2024-02-16T23:17:26.006Z,6.00
2024-02-16T23:19:53.272Z,6.10
2024-02-16T23:22:20.507Z,6.10
2024-02-16T23:24:47.886Z,6.20
2024-02-16T23:27:15.300Z,6.10
2024-02-16T23:29:42.882Z,6.00
2024-02-16T23:32:10.268Z,6.10
2024-02-16T23:34:37.646Z,6.20
2024-02-16T23:37:05.057Z,6.40
2024-02-16T23:39:32.578Z,6.50
2024-02-16T23:42:02.609Z,6.50
2024-02-16T23:44:29.957Z,6.40
2024-02-16T23:46:57.377Z,6.40
2024-02-16T23:49:24.825Z,6.30
2024-02-16T23:51:52.132Z,6.30
2024-02-16T23:54:19.686Z,6.40
2024-02-16T23:56:47.221Z,6.40
2024-02-16T23:59:14.497Z,6.30
